Time;durP1;ratioP1;P1;durP2;ratioP2;P2;SDS_P1;SDS_P2;PMS_P1;PMS_P2;Temp;Humidity;BMP_temperature;BMP_pressure;BME280_temperature;BME280_humidity;BME280_pressure;Samples;Min_cycle;Max_cycle;Signal;HPM_P1;HPM_P2
2022/03/08 00:02:22;;;;;;;;;;;;;;;-0.97;98.14;99104.02;1823684;78;20101;-67
2022/03/08 00:04:49;;;;;;;;;;;;;;;-0.98;98.08;99100.51;1817775;78;20193;-66
2022/03/08 00:07:17;;;;;;;;;;;;;;;-0.99;98.12;99101.58;1771264;80;21598;-67
2022/03/08 00:09:46;;;;;;;;;;;;;;;-1.01;98.33;99102.36;1754415;82;20095;-67
2022/03/08 00:12:16;;;;;;;;;;;;;;;-1.03;98.45;99094.52;1754372;82;20135;-67
2022/03/08 00:14:44;;;;;;;;;;;;;;;-1.05;98.37;99092.61;1761909;80;20188;-67
2022/03/08 00:17:11;;;;;;;;;;;;;;;-1.06;98.53;99089.64;1784261;80;20415;-66
2022/03/08 00:19:39;;;;;;;;;;;;;;;-1.05;98.82;99087.76;1783939;80;21136;-67
2022/03/08 00:22:07;;;;;;;;;;;;;;;-1.06;98.77;99092.86;1784373;80;20420;-66
2022/03/08 00:24:34;;;;;;;;;;;;;;;-1.06;98.81;99090.17;1780565;80;20156;-67
2022/03/08 00:27:01;;;;;;;;;;;;;;;-1.06;98.87;99088.29;1784799;80;20105;-68
2022/03/08 00:29:27;;;;;;;;;;;;;;;-1.04;99.00;99088.04;1784744;80;20092;-66
2022/03/08 00:31:54;;;;;;;;;;;;;;;-1.02;99.10;99088.60;1783604;80;21128;-66
2022/03/08 00:34:22;;;;;;;;;;;;;;;-1.02;99.07;99089.95;1783930;80;20104;-66
2022/03/08 00:36:49;;;;;;;;;;;;;;;-1.02;99.02;99088.60;1782719;80;20136;-66
2022/03/08 00:39:18;;;;;;;;;;;;;;;-1.01;99.16;99090.23;1782990;80;20081;-67
2022/03/08 00:41:46;;;;;;;;;;;;;;;-1.02;99.06;99089.42;1783821;80;20077;-67
2022/03/08 00:44:13;;;;;;;;;;;;;;;-1.02;99.09;99096.16;1784067;80;21249;-67
2022/03/08 00:46:41;;;;;;;;;;;;;;;-1.01;99.17;99084.84;1783881;80;20097;-67
2022/03/08 00:49:10;;;;;;;;;;;;;;;-0.98;99.31;99080.30;1785416;80;20080;-67
2022/03/08 00:51:37;;;;;;;;;;;;;;;-0.98;99.22;99081.64;1785774;79;20112;-67
2022/03/08 00:54:03;;;;;;;;;;;;;;;-0.97;99.13;99081.11;1785375;80;20092;-66
2022/03/08 00:56:30;;;;;;;;;;;;;;;-0.98;98.95;99078.14;1785548;80;21123;-67
2022/03/08 00:58:57;;;;;;;;;;;;;;;-1.00;99.09;99079.73;1785459;80;20111;-67
2022/03/08 01:01:24;;;;;;;;;;;;;;;-1.02;99.02;99084.03;1783455;80;20115;-67
2022/03/08 01:03:51;;;;;;;;;;;;;;;-1.04;99.09;99079.42;1773899;80;20419;-67
2022/03/08 01:06:18;;;;;;;;;;;;;;;-1.07;99.17;99081.27;1768397;80;20107;-66
2022/03/08 01:08:45;;;;;;;;;;;;;;;-1.05;99.70;99076.45;1709382;82;21158;-66
2022/03/08 01:11:12;;;;;;;;;;;;;;;-1.04;99.82;99072.69;1733067;83;20124;-66
2022/03/08 01:13:40;;;;;;;;;;;;;;;-1.03;99.76;99070.81;1732926;81;20144;-66
2022/03/08 01:16:07;;;;;;;;;;;;;;;-1.09;99.71;99082.05;1763510;81;20429;-66
2022/03/08 01:18:35;;;;;;;;;;;;;;;-1.10;100.00;99071.53;1763473;81;20440;-65
2022/03/08 01:21:02;;;;;;;;;;;;;;;-1.11;100.00;99068.55;1763317;81;21127;-66
2022/03/08 01:23:29;;;;;;;;;;;;;;;-1.16;100.00;99072.56;1763206;81;20079;-66
2022/03/08 01:25:57;;;;;;;;;;;;;;;-1.18;100.00;99070.13;1763367;81;20110;-66
2022/03/08 01:28:24;;;;;;;;;;;;;;;-1.18;100.00;99069.31;1763628;81;20083;-66
2022/03/08 01:30:51;;;;;;;;;;;;;;;-1.20;100.00;99068.21;1763367;81;20083;-66
2022/03/08 01:33:19;;;;;;;;;;;;;;;-1.21;100.00;99063.08;1763342;81;21252;-66
2022/03/08 01:35:46;;;;;;;;;;;;;;;-1.23;100.00;99068.71;1763136;81;20082;-66
2022/03/08 01:38:12;;;;;;;;;;;;;;;-1.22;100.00;99066.83;1763518;81;20461;-66
2022/03/08 01:40:40;;;;;;;;;;;;;;;-1.26;100.00;99063.02;1763215;81;20437;-66
2022/03/08 01:43:07;;;;;;;;;;;;;;;-1.29;100.00;99064.33;1763386;81;20107;-66
2022/03/08 01:45:34;;;;;;;;;;;;;;;-1.32;100.00;99062.66;1763277;81;21093;-66
2022/03/08 01:48:01;;;;;;;;;;;;;;;-1.36;100.00;99067.73;1763384;81;20094;-66
2022/03/08 01:50:28;;;;;;;;;;;;;;;-1.39;100.00;99072.27;1763222;81;20078;-66
2022/03/08 01:52:54;;;;;;;;;;;;;;;-1.42;100.00;99073.59;1763187;81;20918;-66
2022/03/08 01:55:22;;;;;;;;;;;;;;;-1.43;100.00;99063.06;1733825;81;20149;-67
2022/03/08 01:57:49;;;;;;;;;;;;;;;-1.41;100.00;99062.28;1763257;81;21244;-67
2022/03/08 02:00:20;;;;;;;;;;;;;;;-1.41;100.00;99059.59;1763192;81;20482;-67
2022/03/08 02:02:47;;;;;;;;;;;;;;;-1.42;100.00;99055.27;1763335;81;20131;-67
2022/03/08 02:05:13;;;;;;;;;;;;;;;-1.46;100.00;99050.09;1758140;81;20103;-67
2022/03/08 02:07:42;;;;;;;;;;;;;;;-1.45;100.00;99055.23;1730901;83;20076;-67
2022/03/08 02:10:09;;;;;;;;;;;;;;;-1.47;100.00;99056.02;1695227;84;21167;-67
2022/03/08 02:12:36;;;;;;;;;;;;;;;-1.49;100.00;99060.83;1695578;84;20103;-66
2022/03/08 02:15:20;;;;;;;;;;;;;;;-1.49;100.00;99062.71;1695281;83;20143;-67
2022/03/08 02:17:47;;;;;;;;;;;;;;;-1.45;100.00;99062.50;1695233;84;20111;-66
2022/03/08 02:20:14;;;;;;;;;;;;;;;-1.40;100.00;99068.77;1695498;84;20091;-67
2022/03/08 02:22:43;;;;;;;;;;;;;;;-1.38;100.00;99067.17;1695191;84;21166;-67
2022/03/08 02:25:10;;;;;;;;;;;;;;;-1.37;100.00;99063.41;1729424;83;20127;-67
2022/03/08 02:27:41;;;;;;;;;;;;;;;-1.35;100.00;99062.63;1729902;83;20140;-67
2022/03/08 02:30:12;;;;;;;;;;;;;;;-1.35;100.00;99066.14;1729841;83;20446;-66
2022/03/08 02:32:40;;;;;;;;;;;;;;;-1.34;100.00;99063.73;1729940;83;20112;-67
2022/03/08 02:35:10;;;;;;;;;;;;;;;-1.36;100.00;99065.86;1729908;83;21138;-67
2022/03/08 02:37:39;;;;;;;;;;;;;;;-1.34;100.00;99065.61;1729757;83;20470;-68
2022/03/08 02:40:10;;;;;;;;;;;;;;;-1.38;100.00;99060.44;1729683;82;20156;-67
2022/03/08 02:42:37;;;;;;;;;;;;;;;-1.40;100.00;99063.37;1729810;83;20489;-66
2022/03/08 02:45:06;;;;;;;;;;;;;;;-1.41;100.00;99063.09;1729926;83;20126;-66
2022/03/08 02:47:33;;;;;;;;;;;;;;;-1.41;100.00;99056.90;1729976;83;20891;-66
2022/03/08 02:50:00;;;;;;;;;;;;;;;-1.46;100.00;99054.95;1729849;83;20100;-71
2022/03/08 02:52:27;;;;;;;;;;;;;;;-1.48;100.00;99061.12;1730078;81;20466;-68
2022/03/08 02:54:53;;;;;;;;;;;;;;;-1.49;100.00;99060.83;1729790;81;20168;-68
2022/03/08 02:57:20;;;;;;;;;;;;;;;-1.50;100.00;99067.28;1729787;83;20140;-68
2022/03/08 02:59:47;;;;;;;;;;;;;;;-1.50;100.00;99065.12;1729886;83;21767;-68
2022/03/08 03:02:15;;;;;;;;;;;;;;;-1.52;100.00;99066.72;1729729;83;20163;-70
2022/03/08 03:04:42;;;;;;;;;;;;;;;-1.52;100.00;99062.67;1729901;83;20104;-68
2022/03/08 03:07:08;;;;;;;;;;;;;;;-1.53;100.00;99061.05;1768820;78;20117;-68
2022/03/08 03:09:37;;;;;;;;;;;;;;;-1.55;100.00;99057.79;1718072;83;20099;-69
2022/03/08 03:12:04;;;;;;;;;;;;;;;-1.57;100.00;99058.57;1717940;83;22045;-69
2022/03/08 03:14:32;;;;;;;;;;;;;;;-1.58;100.00;99057.47;1717947;82;20152;-68
2022/03/08 03:16:59;;;;;;;;;;;;;;;-1.58;100.00;99062.33;1708170;83;20171;-67
2022/03/08 03:19:26;;;;;;;;;;;;;;;-1.56;100.00;99061.55;1718032;83;20119;-67
2022/03/08 03:21:53;;;;;;;;;;;;;;;-1.52;100.00;99065.37;1717945;83;20130;-68
2022/03/08 03:24:21;;;;;;;;;;;;;;;-1.51;100.00;99068.34;1712506;83;21822;-68
2022/03/08 03:26:47;;;;;;;;;;;;;;;-1.53;100.00;99061.05;1712095;84;20099;-67
2022/03/08 03:29:15;;;;;;;;;;;;;;;-1.56;100.00;99064.77;1724499;83;20087;-66
2022/03/08 03:31:42;;;;;;;;;;;;;;;-1.58;100.00;99055.59;1724348;83;20207;-66
2022/03/08 03:34:09;;;;;;;;;;;;;;;-1.55;100.00;99061.83;1727954;82;20126;-67
2022/03/08 03:36:36;;;;;;;;;;;;;;;-1.53;100.00;99062.39;1747736;82;21874;-67
2022/03/08 03:39:05;;;;;;;;;;;;;;;-1.53;100.00;99069.66;1747612;82;20107;-68
2022/03/08 03:41:32;;;;;;;;;;;;;;;-1.53;100.00;99062.92;1748010;82;20454;-70
2022/03/08 03:43:59;;;;;;;;;;;;;;;-1.51;100.00;99058.92;1747743;82;20583;-68
2022/03/08 03:46:25;;;;;;;;;;;;;;;-1.52;100.00;99063.20;1747749;82;20083;-68
2022/03/08 03:48:52;;;;;;;;;;;;;;;-1.54;100.00;99068.84;1747744;82;21200;-68
2022/03/08 03:51:19;;;;;;;;;;;;;;;-1.55;100.00;99064.52;1747647;82;20414;-68
2022/03/08 03:53:46;;;;;;;;;;;;;;;-1.55;100.00;99062.36;1747756;82;20454;-68
2022/03/08 03:56:14;;;;;;;;;;;;;;;-1.57;100.00;99067.17;1732651;82;20130;-68
2022/03/08 03:58:42;;;;;;;;;;;;;;;-1.57;100.00;99061.27;1746471;80;20134;-67
2022/03/08 04:01:09;;;;;;;;;;;;;;;-1.57;100.00;99058.57;1748182;82;21750;-70
2022/03/08 04:03:36;;;;;;;;;;;;;;;-1.55;100.00;99064.52;1747724;82;20103;-68
2022/03/08 04:06:03;;;;;;;;;;;;;;;-1.52;100.00;99063.20;1753879;81;20134;-71
2022/03/08 04:08:32;;;;;;;;;;;;;;;-1.49;100.00;99064.88;1763392;81;20087;-70
2022/03/08 04:10:59;;;;;;;;;;;;;;;-1.46;100.00;99067.06;1763359;81;20118;-69
2022/03/08 04:13:25;;;;;;;;;;;;;;;-1.45;100.00;99063.31;1763720;80;21107;-68
2022/03/08 04:15:55;;;;;;;;;;;;;;;-1.42;100.00;99063.34;1763254;81;20075;-69
2022/03/08 04:18:22;;;;;;;;;;;;;;;-1.40;100.00;99071.98;1763348;81;20230;-69
2022/03/08 04:20:49;;;;;;;;;;;;;;;-1.39;100.00;99069.05;1763408;81;20086;-69
2022/03/08 04:23:16;;;;;;;;;;;;;;;-1.36;100.00;99069.08;1762562;81;20113;-68
2022/03/08 04:25:43;;;;;;;;;;;;;;;-1.34;100.00;99070.46;1762774;80;21220;-68
2022/03/08 04:28:10;;;;;;;;;;;;;;;-1.32;100.00;99072.09;1762877;81;20380;-68
2022/03/08 04:30:37;;;;;;;;;;;;;;;-1.34;100.00;99065.08;1763552;81;20082;-68
2022/03/08 04:33:05;;;;;;;;;;;;;;;-1.31;100.00;99066.98;1763343;81;20629;-68
2022/03/08 04:35:32;;;;;;;;;;;;;;;-1.30;100.00;99068.08;1763334;81;20079;-68
2022/03/08 04:38:00;;;;;;;;;;;;;;;-1.31;100.00;99069.14;1763404;81;21108;-70
2022/03/08 04:40:27;;;;;;;;;;;;;;;-1.31;100.00;99069.68;1763365;81;20413;-69
2022/03/08 04:42:54;;;;;;;;;;;;;;;-1.34;100.00;99064.27;1763296;81;20135;-69
2022/03/08 04:45:21;;;;;;;;;;;;;;;-1.35;100.00;99069.36;1763260;81;20417;-69
2022/03/08 04:47:49;;;;;;;;;;;;;;;-1.34;100.00;99075.84;1763428;81;20079;-67
2022/03/08 04:50:17;;;;;;;;;;;;;;;-1.32;100.00;99078.29;1763418;81;21152;-67
2022/03/08 04:52:45;;;;;;;;;;;;;;;-1.31;100.00;99081.27;1763322;81;20079;-67
2022/03/08 04:55:12;;;;;;;;;;;;;;;-1.28;100.00;99082.64;1732018;81;20422;-70
2022/03/08 04:57:39;;;;;;;;;;;;;;;-1.26;100.00;99086.72;1763256;81;20090;-71
2022/03/08 05:00:07;;;;;;;;;;;;;;;-1.22;100.00;99093.77;1763685;81;20437;-68
2022/03/08 05:02:35;;;;;;;;;;;;;;;-1.21;100.00;99088.66;1763311;81;21136;-67
2022/03/08 05:05:01;;;;;;;;;;;;;;;-1.18;100.00;99087.63;1763504;81;20114;-68
2022/03/08 05:07:31;;;;;;;;;;;;;;;-1.18;100.00;99094.36;1763181;80;20438;-67
2022/03/08 05:09:58;;;;;;;;;;;;;;;-1.19;100.00;99099.47;1762851;81;20191;-68
2022/03/08 05:12:25;;;;;;;;;;;;;;;-1.18;100.00;99098.94;1762845;81;20446;-68
2022/03/08 05:14:51;;;;;;;;;;;;;;;-1.15;100.00;99101.91;1762531;80;21932;-68
2022/03/08 05:17:18;;;;;;;;;;;;;;;-1.15;100.00;99093.02;1762520;81;20445;-68
2022/03/08 05:19:45;;;;;;;;;;;;;;;-1.14;100.00;99104.08;1762614;81;20179;-68
2022/03/08 05:22:12;;;;;;;;;;;;;;;-1.11;100.00;99098.19;1762631;81;20127;-68
2022/03/08 05:24:39;;;;;;;;;;;;;;;-1.09;100.00;99100.09;1762602;80;20117;-67
2022/03/08 05:27:07;;;;;;;;;;;;;;;-1.09;100.00;99098.75;1762684;81;21798;-67
2022/03/08 05:29:35;;;;;;;;;;;;;;;-1.08;100.00;99103.08;1762635;81;20091;-67
2022/03/08 05:32:03;;;;;;;;;;;;;;;-1.05;100.00;99104.73;1762584;81;20106;-67
2022/03/08 05:34:30;;;;;;;;;;;;;;;-1.01;100.00;99098.31;1762639;81;20828;-66
2022/03/08 05:36:57;;;;;;;;;;;;;;;-0.95;100.00;99097.84;1762624;81;20142;-68
2022/03/08 05:39:24;;;;;;;;;;;;;;;-0.93;100.00;99097.88;1762655;81;21133;-68
2022/03/08 05:41:51;;;;;;;;;;;;;;;-0.86;100.00;99097.69;1762657;81;20095;-67
2022/03/08 05:44:18;;;;;;;;;;;;;;;-0.84;100.00;99100.41;1762704;81;20083;-67
2022/03/08 05:46:47;;;;;;;;;;;;;;;-0.81;100.00;99105.30;1762760;81;20131;-67
2022/03/08 05:49:15;;;;;;;;;;;;;;;-0.77;100.00;99101.56;1762782;81;20449;-67
2022/03/08 05:51:43;;;;;;;;;;;;;;;-0.71;100.00;99114.84;1762679;81;21137;-67
2022/03/08 05:54:10;;;;;;;;;;;;;;;-0.64;100.00;99110.60;1762569;81;20127;-67
2022/03/08 05:56:36;;;;;;;;;;;;;;;-0.62;100.00;99117.09;1762585;81;20143;-67
2022/03/08 05:59:04;;;;;;;;;;;;;;;-0.61;100.00;99117.37;1762529;80;21020;-67
2022/03/08 06:01:30;;;;;;;;;;;;;;;-0.58;100.00;99112.82;1762587;81;20186;-67
2022/03/08 06:03:59;;;;;;;;;;;;;;;-0.53;100.00;99122.28;1762534;81;22060;-67
2022/03/08 06:06:27;;;;;;;;;;;;;;;-0.57;100.00;99119.27;1757794;80;20138;-67
2022/03/08 06:08:54;;;;;;;;;;;;;;;-0.62;100.00;99123.30;1729924;83;20140;-67
2022/03/08 06:11:23;;;;;;;;;;;;;;;-0.58;100.00;99119.56;1747103;82;20839;-67
2022/03/08 06:13:49;;;;;;;;;;;;;;;-0.53;100.00;99127.67;1730027;81;20128;-67
2022/03/08 06:16:16;;;;;;;;;;;;;;;-0.43;100.00;99123.73;1729157;83;21325;-67
2022/03/08 06:18:43;;;;;;;;;;;;;;;-0.33;100.00;99119.80;1729182;83;20195;-68
2022/03/08 06:21:10;;;;;;;;;;;;;;;-0.21;100.00;99120.98;1729276;83;20141;-67
2022/03/08 06:23:38;;;;;;;;;;;;;;;-0.13;100.00;99118.64;1729388;83;20153;-67
2022/03/08 06:26:05;;;;;;;;;;;;;;;-0.03;100.00;99120.08;1729441;83;20180;-68
2022/03/08 06:28:33;;;;;;;;;;;;;;;0.09;100.00;99117.18;1729233;83;21184;-69
2022/03/08 06:31:00;;;;;;;;;;;;;;;0.14;99.51;99119.11;1729433;83;20167;-67
2022/03/08 06:33:27;;;;;;;;;;;;;;;0.13;98.46;99125.04;1729828;81;20115;-66
2022/03/08 06:35:54;;;;;;;;;;;;;;;0.09;98.08;99122.58;1729877;83;20208;-65
2022/03/08 06:38:20;;;;;;;;;;;;;;;0.08;98.35;99112.85;1729816;83;20127;-66
2022/03/08 06:40:48;;;;;;;;;;;;;;;0.15;98.51;99122.08;1729908;83;21866;-67
2022/03/08 06:43:15;;;;;;;;;;;;;;;0.20;97.42;99116.72;1729733;83;20115;-68
2022/03/08 06:45:42;;;;;;;;;;;;;;;0.21;96.86;99122.40;1729898;83;20171;-68
2022/03/08 06:48:10;;;;;;;;;;;;;;;0.26;97.27;99123.79;1729753;83;20124;-68
2022/03/08 06:50:37;;;;;;;;;;;;;;;0.32;97.09;99118.70;1729922;83;20148;-68
2022/03/08 06:53:04;;;;;;;;;;;;;;;0.38;95.48;99127.66;1728760;83;22208;-68
2022/03/08 06:55:31;;;;;;;;;;;;;;;0.32;94.93;99125.45;1729329;83;20148;-68
2022/03/08 06:57:57;;;;;;;;;;;;;;;0.25;95.26;99127.03;1728397;83;20127;-67
2022/03/08 07:00:25;;;;;;;;;;;;;;;0.25;95.47;99127.03;1728371;83;20716;-68
2022/03/08 07:02:53;;;;;;;;;;;;;;;0.32;95.76;99121.41;1728280;83;20229;-68
2022/03/08 07:05:20;;;;;;;;;;;;;;;0.42;95.99;99128.77;1728129;83;21130;-69
2022/03/08 07:07:46;;;;;;;;;;;;;;;0.59;96.15;99126.16;1753693;80;20156;-72
2022/03/08 07:10:13;;;;;;;;;;;;;;;0.78;95.17;99128.42;1752397;82;20124;-70
2022/03/08 07:12:40;;;;;;;;;;;;;;;0.93;93.09;99121.75;1751059;82;20425;-70
2022/03/08 07:15:09;;;;;;;;;;;;;;;1.17;93.04;99122.10;1750905;80;20108;-70
2022/03/08 07:17:36;;;;;;;;;;;;;;;1.57;90.55;99118.72;1750822;82;21129;-71
2022/03/08 07:20:04;;;;;;;;;;;;;;;1.86;89.33;99118.47;1751003;82;20469;-71
2022/03/08 07:22:32;;;;;;;;;;;;;;;2.21;87.45;99122.28;1747438;82;20435;-71
2022/03/08 07:25:00;;;;;;;;;;;;;;;2.84;86.57;99118.66;1751259;82;20132;-71
2022/03/08 07:27:27;;;;;;;;;;;;;;;3.64;84.65;99117.98;1751665;82;20095;-71
2022/03/08 07:29:53;;;;;;;;;;;;;;;4.29;79.53;99119.95;1751087;82;21779;-71
2022/03/08 07:32:20;;;;;;;;;;;;;;;4.44;76.09;99106.77;1751117;82;20115;-71
2022/03/08 07:34:47;;;;;;;;;;;;;;;4.58;75.20;99105.02;1751701;82;20131;-71
2022/03/08 07:37:13;;;;;;;;;;;;;;;4.83;74.44;99106.63;1751381;82;20533;-70
2022/03/08 07:39:40;;;;;;;;;;;;;;;4.82;71.91;99106.38;1751721;82;20402;-72
2022/03/08 07:42:06;;;;;;;;;;;;;;;4.72;70.03;99106.48;1751249;82;21246;-76
2022/03/08 07:44:36;;;;;;;;;;;;;;;4.57;70.95;99103.39;1720669;82;38639;-73
2022/03/08 07:47:04;;;;;;;;;;;;;;;4.33;71.63;99101.98;1751677;82;20119;-68
2022/03/08 07:49:30;;;;;;;;;;;;;;;3.92;72.42;99105.05;1751260;81;20103;-72
2022/03/08 07:51:57;;;;;;;;;;;;;;;3.43;73.10;99104.30;1751272;82;20095;-73
2022/03/08 07:54:23;;;;;;;;;;;;;;;2.92;74.85;99112.09;1751406;82;22126;-74
2022/03/08 07:56:49;;;;;;;;;;;;;;;2.54;77.87;99107.33;1751219;82;20119;-70
2022/03/08 07:59:15;;;;;;;;;;;;;;;2.18;77.65;99109.28;1751595;82;20134;-73
2022/03/08 08:01:42;;;;;;;;;;;;;;;1.85;79.23;99112.79;1751314;82;20102;-73
2022/03/08 08:04:08;;;;;;;;;;;;;;;1.67;80.90;99116.58;1751312;82;20084;-71
2022/03/08 08:06:34;;;;;;;;;;;;;;;1.53;81.90;99114.38;1752487;81;21157;-72
2022/03/08 08:09:01;;;;;;;;;;;;;;;1.36;82.54;99119.73;1764583;81;20083;-72
2022/03/08 08:11:27;;;;;;;;;;;;;;;1.19;83.26;99125.36;1764535;81;20107;-69
2022/03/08 08:13:54;;;;;;;;;;;;;;;1.05;84.20;99118.30;1764763;80;20656;-71
2022/03/08 08:16:21;;;;;;;;;;;;;;;0.97;85.23;99118.27;1764765;81;20091;-72
2022/03/08 08:18:47;;;;;;;;;;;;;;;0.91;83.96;99122.02;1764638;81;21102;-71
2022/03/08 08:21:13;;;;;;;;;;;;;;;0.89;84.42;99124.70;1764583;81;20118;-72
2022/03/08 08:23:40;;;;;;;;;;;;;;;1.07;85.08;99124.25;1764611;81;20426;-72
2022/03/08 08:26:06;;;;;;;;;;;;;;;1.65;87.32;99116.84;1764565;81;20194;-75
2022/03/08 08:28:33;;;;;;;;;;;;;;;2.33;84.77;99114.67;1764998;81;20138;-74
2022/03/08 08:30:59;;;;;;;;;;;;;;;2.56;81.16;99110.03;1764600;81;21150;-68
2022/03/08 08:33:26;;;;;;;;;;;;;;;2.42;80.26;99121.70;1785375;80;20419;-67
2022/03/08 08:35:52;;;;;;;;;;;;;;;2.13;81.39;99120.93;1787381;80;20100;-68
2022/03/08 08:38:18;;;;;;;;;;;;;;;1.73;82.30;99124.98;1787283;80;20651;-67
2022/03/08 08:40:45;;;;;;;;;;;;;;;1.36;83.02;99134.61;1787318;80;20144;-66
2022/03/08 08:43:11;;;;;;;;;;;;;;;1.11;85.64;99128.59;1787440;80;21131;-66
2022/03/08 08:45:37;;;;;;;;;;;;;;;0.96;86.71;99128.80;1787213;80;20132;-66
2022/03/08 08:48:05;;;;;;;;;;;;;;;0.81;87.50;99125.20;1787314;80;20084;-66
2022/03/08 08:50:32;;;;;;;;;;;;;;;0.70;88.20;99139.73;1787415;80;20820;-66
2022/03/08 08:52:58;;;;;;;;;;;;;;;0.56;88.42;99138.86;1787364;80;20084;-66
2022/03/08 08:55:25;;;;;;;;;;;;;;;0.41;89.13;99134.70;1787357;80;21149;-66
2022/03/08 08:57:51;;;;;;;;;;;;;;;0.30;89.59;99141.10;1787531;80;20100;-67
2022/03/08 09:00:17;;;;;;;;;;;;;;;0.21;89.82;99146.70;1787387;80;20112;-66
2022/03/08 09:02:45;;;;;;;;;;;;;;;0.14;90.29;99125.85;1787320;80;20085;-66
2022/03/08 09:05:13;;;;;;;;;;;;;;;0.07;90.62;99145.50;1787808;80;20124;-67
2022/03/08 09:07:40;;;;;;;;;;;;;;;0.06;90.82;99131.72;1780708;80;21145;-67
2022/03/08 09:10:07;;;;;;;;;;;;;;;0.04;90.99;99141.96;1771891;81;20167;-67
2022/03/08 09:12:34;;;;;;;;;;;;;;;0.10;91.44;99136.34;1771624;81;20105;-67
2022/03/08 09:15:02;;;;;;;;;;;;;;;0.21;91.59;99139.41;1771521;79;20096;-67
2022/03/08 09:17:29;;;;;;;;;;;;;;;0.40;91.26;99133.08;1771967;81;20436;-67
2022/03/08 09:19:57;;;;;;;;;;;;;;;0.54;90.51;99136.95;1771788;81;21108;-66
2022/03/08 09:22:23;;;;;;;;;;;;;;;0.73;90.69;99133.80;1771490;81;20108;-67
2022/03/08 09:24:49;;;;;;;;;;;;;;;1.06;90.09;99138.03;1771744;81;20132;-66
2022/03/08 09:27:16;;;;;;;;;;;;;;;1.39;89.21;99130.84;1771631;81;20093;-67
2022/03/08 09:29:43;;;;;;;;;;;;;;;1.63;86.72;99125.23;1771681;80;20081;-66
2022/03/08 09:32:09;;;;;;;;;;;;;;;1.70;85.70;99126.33;1766006;80;22045;-67
2022/03/08 09:34:38;;;;;;;;;;;;;;;1.73;84.17;99125.79;1758552;81;20118;-67
2022/03/08 09:37:05;;;;;;;;;;;;;;;1.93;85.91;99123.08;1758319;81;20087;-66
2022/03/08 09:39:32;;;;;;;;;;;;;;;2.64;86.22;99119.51;1758416;81;20696;-68
2022/03/08 09:41:58;;;;;;;;;;;;;;;3.42;83.63;99121.66;1758746;81;20139;-67
2022/03/08 09:44:25;;;;;;;;;;;;;;;4.11;82.16;99117.92;1758551;81;21780;-67
2022/03/08 09:46:51;;;;;;;;;;;;;;;4.84;78.53;99120.48;1758284;81;20472;-66
2022/03/08 09:49:17;;;;;;;;;;;;;;;5.46;75.67;99113.20;1758653;81;20136;-68
2022/03/08 09:51:44;;;;;;;;;;;;;;;5.95;70.13;99113.59;1758338;81;20090;-67
2022/03/08 09:54:10;;;;;;;;;;;;;;;6.25;70.18;99106.05;1758393;81;20115;-68
2022/03/08 09:56:38;;;;;;;;;;;;;;;6.50;64.21;99106.95;1758374;81;21197;-67
2022/03/08 09:59:05;;;;;;;;;;;;;;;6.11;65.18;99110.08;1758291;81;20421;-67
2022/03/08 10:01:31;;;;;;;;;;;;;;;5.44;66.76;99129.02;1758336;81;20139;-67
2022/03/08 10:03:57;;;;;;;;;;;;;;;4.55;70.44;99121.89;1758229;81;20099;-67
2022/03/08 10:06:23;;;;;;;;;;;;;;;3.60;73.11;99125.07;1758515;81;20098;-66
2022/03/08 10:08:50;;;;;;;;;;;;;;;2.76;82.71;99125.99;1735639;81;21154;-67
2022/03/08 10:11:17;;;;;;;;;;;;;;;2.23;79.98;99118.77;1736743;81;20090;-67
2022/03/08 10:13:48;;;;;;;;;;;;;;;1.86;79.87;99114.95;1765898;81;20111;-66
2022/03/08 10:16:28;;;;;;;;;;;;;;;1.58;80.62;99121.70;1765887;81;20620;-67
2022/03/08 10:18:58;;;;;;;;;;;;;;;1.37;80.25;99120.83;1766325;81;20102;-65
2022/03/08 10:21:34;;;;;;;;;;;;;;;1.32;80.63;99120.81;1765994;81;21146;-67
2022/03/08 10:24:21;;;;;;;;;;;;;;;1.38;80.33;99122.99;1781764;80;20132;-67
2022/03/08 10:26:55;;;;;;;;;;;;;;;1.43;80.70;99125.17;1781584;80;20164;-66
2022/03/08 10:29:26;;;;;;;;;;;;;;;1.59;82.27;99123.33;1782493;80;20096;-66
2022/03/08 10:32:07;;;;;;;;;;;;;;;1.57;82.31;99127.65;1781881;80;20133;-67
2022/03/08 10:34:35;;;;;;;;;;;;;;;1.39;82.48;99125.97;1782037;80;21161;-66
2022/03/08 10:37:18;;;;;;;;;;;;;;;1.11;80.57;99121.30;1781824;79;20081;-66
2022/03/08 10:39:49;;;;;;;;;;;;;;;0.94;81.48;99119.33;1781990;80;20092;-66
2022/03/08 10:42:24;;;;;;;;;;;;;;;0.97;82.19;99113.40;1782004;80;20609;-65
2022/03/08 10:44:51;;;;;;;;;;;;;;;1.08;82.46;99110.20;1779938;80;20124;-67
2022/03/08 10:47:18;;;;;;;;;;;;;;;1.33;82.05;99115.67;1781993;80;21115;-65
2022/03/08 10:49:53;;;;;;;;;;;;;;;1.84;82.91;99109.00;1781871;79;20211;-65
2022/03/08 10:52:28;;;;;;;;;;;;;;;2.49;80.97;99105.44;1782006;80;20100;-66
2022/03/08 10:54:55;;;;;;;;;;;;;;;3.41;79.95;99097.78;1781858;80;20088;-66
2022/03/08 10:57:22;;;;;;;;;;;;;;;4.18;74.70;99097.48;1781306;80;20093;-66
2022/03/08 10:59:55;;;;;;;;;;;;;;;4.79;70.86;99100.95;1782283;80;21040;-66
2022/03/08 11:02:22;;;;;;;;;;;;;;;5.24;65.66;99102.31;1781868;80;20137;-67
2022/03/08 11:04:50;;;;;;;;;;;;;;;5.68;64.80;99097.66;1781878;80;20136;-67
2022/03/08 11:07:17;;;;;;;;;;;;;;;5.92;62.06;99102.48;1753137;80;20101;-66
2022/03/08 11:09:44;;;;;;;;;;;;;;;6.09;62.05;99089.69;1781944;80;20113;-68
2022/03/08 11:12:11;;;;;;;;;;;;;;;6.39;60.47;99086.98;1782424;80;21106;-68
2022/03/08 11:14:37;;;;;;;;;;;;;;;6.48;56.86;99087.91;1781848;80;20451;-67
2022/03/08 11:17:04;;;;;;;;;;;;;;;6.34;58.33;99094.72;1781923;80;20147;-68
2022/03/08 11:19:31;;;;;;;;;;;;;;;6.34;57.05;99080.28;1782236;80;20691;-66
2022/03/08 11:21:57;;;;;;;;;;;;;;;6.32;56.04;99089.31;1782030;80;20072;-67
2022/03/08 11:24:24;;;;;;;;;;;;;;;6.40;56.96;99089.41;1782294;80;21799;-66
2022/03/08 11:26:50;;;;;;;;;;;;;;;6.30;59.33;99097.78;1782070;80;20108;-67
2022/03/08 11:29:17;;;;;;;;;;;;;;;6.09;61.53;99098.67;1782071;80;20120;-67
2022/03/08 11:31:43;;;;;;;;;;;;;;;5.35;63.06;99113.07;1781826;80;20088;-67
2022/03/08 11:34:19;;;;;;;;;;;;;;;4.78;65.83;99112.13;1782433;80;20116;-68
2022/03/08 11:36:49;;;;;;;;;;;;;;;4.11;69.98;99107.05;1782006;80;21796;-68
2022/03/08 11:39:20;;;;;;;;;;;;;;;3.42;71.49;99123.83;1782103;80;20108;-68
2022/03/08 11:41:58;;;;;;;;;;;;;;;2.78;73.10;99126.53;1781898;79;20107;-67
2022/03/08 11:44:32;;;;;;;;;;;;;;;2.20;75.25;99109.28;1781605;80;20109;-68
2022/03/08 11:47:07;;;;;;;;;;;;;;;1.71;76.69;99135.26;1781872;80;20116;-67
2022/03/08 11:49:38;;;;;;;;;;;;;;;1.24;78.72;99134.30;1782236;80;21708;-67
2022/03/08 11:52:15;;;;;;;;;;;;;;;0.93;80.39;99136.08;1789111;79;20094;-67
2022/03/08 11:54:44;;;;;;;;;;;;;;;0.82;82.11;99137.10;1762901;81;20151;-68
2022/03/08 11:57:15;;;;;;;;;;;;;;;0.71;83.44;99128.66;1779343;80;20180;-67
2022/03/08 11:59:40;;;;;;;;;;;;;;;0.59;84.39;99137.50;1775854;80;20411;-67
2022/03/08 12:02:08;;;;;;;;;;;;;;;0.42;84.89;99133.63;1779672;80;21882;-67
2022/03/08 12:04:43;;;;;;;;;;;;;;;0.37;85.95;99134.13;1779423;80;20072;-67
2022/03/08 12:07:09;;;;;;;;;;;;;;;0.41;87.02;99137.94;1795892;79;20121;-67
2022/03/08 12:09:37;;;;;;;;;;;;;;;0.39;87.13;99137.39;1754341;80;20105;-73
2022/03/08 12:12:04;;;;;;;;;;;;;;;0.37;87.75;99136.30;1778559;80;20093;-74
2022/03/08 12:14:34;;;;;;;;;;;;;;;0.36;87.81;99136.02;1778068;79;20081;-73
2022/03/08 12:17:10;;;;;;;;;;;;;;;0.35;88.00;99134.92;1778049;80;20092;-72
2022/03/08 12:19:44;;;;;;;;;;;;;;;0.33;88.11;99137.89;1778257;80;20088;-69
2022/03/08 12:22:18;;;;;;;;;;;;;;;0.35;87.96;99139.79;1778418;80;20112;-73
2022/03/08 12:24:47;;;;;;;;;;;;;;;0.29;88.19;99141.64;1778379;80;20108;-73
2022/03/08 12:27:16;;;;;;;;;;;;;;;0.24;89.97;99141.59;1772544;80;21090;-73
2022/03/08 12:29:53;;;;;;;;;;;;;;;0.21;91.08;99138.59;1778303;80;20117;-72
2022/03/08 12:32:29;;;;;;;;;;;;;;;0.23;91.67;99141.86;1764521;80;20414;-68
2022/03/08 12:34:58;;;;;;;;;;;;;;;0.25;91.42;99144.58;1749872;82;20453;-69
2022/03/08 12:37:28;;;;;;;;;;;;;;;0.18;91.41;99148.56;1749729;82;20127;-68
2022/03/08 12:39:57;;;;;;;;;;;;;;;0.20;91.57;99158.03;1750066;82;21093;-67
2022/03/08 12:42:35;;;;;;;;;;;;;;;0.26;90.60;99158.89;1749658;82;20149;-73
2022/03/08 12:45:13;;;;;;;;;;;;;;;0.31;90.15;99158.39;1749744;82;20421;-71
2022/03/08 12:47:51;;;;;;;;;;;;;;;0.32;89.94;99160.02;1766573;81;20150;-72
2022/03/08 12:50:19;;;;;;;;;;;;;;;0.35;89.16;99160.58;1747385;82;20099;-75
2022/03/08 12:52:53;;;;;;;;;;;;;;;0.40;88.38;99168.72;1746831;82;21134;-73